createdAt,value
2017-08-03T00:01:31.935Z,64.60
2017-08-03T00:03:58.839Z,65.60
2017-08-03T00:06:24.992Z,64.80
2017-08-03T00:08:51.862Z,64.40
2017-08-03T00:11:18.006Z,64.40
2017-08-03T00:13:44.134Z,64.40
2017-08-03T00:16:10.291Z,64.80
2017-08-03T00:18:36.413Z,66.00
2017-08-03T00:21:02.550Z,65.40
2017-08-03T00:23:28.659Z,65.20
2017-08-03T00:25:54.799Z,64.60
2017-08-03T00:28:21.680Z,64.80
2017-08-03T00:30:47.833Z,64.80
2017-08-03T00:33:13.979Z,65.30
2017-08-03T00:35:40.184Z,65.30
2017-08-03T00:38:06.322Z,65.50
2017-08-03T00:40:32.434Z,65.80
2017-08-03T00:42:58.572Z,65.60
2017-08-03T00:45:24.697Z,65.80
2017-08-03T00:47:50.859Z,65.60
2017-08-03T00:50:16.973Z,66.20
2017-08-03T00:52:43.135Z,66.50
2017-08-03T00:55:09.283Z,66.30
2017-08-03T00:57:35.443Z,66.20
2017-08-03T01:00:01.554Z,66.00
2017-08-03T01:02:27.702Z,65.90
2017-08-03T01:04:54.607Z,65.40
2017-08-03T01:07:20.754Z,65.40
2017-08-03T01:09:46.916Z,65.80
2017-08-03T01:12:13.093Z,65.80
2017-08-03T01:14:39.217Z,65.60
2017-08-03T01:17:05.343Z,65.60
2017-08-03T01:19:31.513Z,65.80
2017-08-03T01:21:57.675Z,65.80
2017-08-03T01:24:23.802Z,65.70
2017-08-03T01:26:49.926Z,65.80
2017-08-03T01:29:16.799Z,65.80
2017-08-03T01:31:42.951Z,65.80
2017-08-03T01:34:09.138Z,66.20
2017-08-03T01:36:35.314Z,66.20
2017-08-03T01:39:01.470Z,66.40
2017-08-03T01:41:27.619Z,66.20
2017-08-03T01:43:54.497Z,66.30
2017-08-03T01:46:20.629Z,66.30
2017-08-03T01:48:46.809Z,66.50
2017-08-03T01:51:12.958Z,66.30
2017-08-03T01:53:39.109Z,66.70
2017-08-03T01:56:05.338Z,66.50
2017-08-03T01:58:31.530Z,66.50
2017-08-03T02:00:57.743Z,66.40
2017-08-03T02:03:24.638Z,66.70
2017-08-03T02:05:50.800Z,66.70
2017-08-03T02:08:16.964Z,66.60
2017-08-03T02:10:43.115Z,66.50
2017-08-03T02:13:11.278Z,66.40
2017-08-03T02:15:37.450Z,66.40
2017-08-03T02:18:03.558Z,66.30
2017-08-03T02:20:29.698Z,66.30
2017-08-03T02:22:55.838Z,66.00
2017-08-03T02:25:21.967Z,66.00
2017-08-03T02:27:48.114Z,66.30
2017-08-03T02:30:14.232Z,66.30
2017-08-03T02:32:41.126Z,66.60
2017-08-03T02:35:07.271Z,66.60
2017-08-03T02:37:33.419Z,66.30
2017-08-03T02:39:59.569Z,67.00
2017-08-03T02:42:25.741Z,66.90
2017-08-03T02:44:51.868Z,66.80
2017-08-03T02:47:18.006Z,66.80
2017-08-03T02:49:44.135Z,66.80
2017-08-03T02:52:10.286Z,66.60
2017-08-03T02:54:36.447Z,67.10
2017-08-03T02:57:02.566Z,66.90
2017-08-03T02:59:28.718Z,66.50
2017-08-03T03:01:54.855Z,66.80
2017-08-03T03:04:20.986Z,66.90
2017-08-03T03:06:47.109Z,67.10
2017-08-03T03:09:13.251Z,67.10
2017-08-03T03:11:39.397Z,67.90
2017-08-03T03:14:05.546Z,67.50
2017-08-03T03:16:31.735Z,67.60
2017-08-03T03:18:57.872Z,67.90
2017-08-03T03:21:24.023Z,68.90
2017-08-03T03:23:50.171Z,67.70
2017-08-03T03:26:16.294Z,68.10
2017-08-03T03:28:42.487Z,67.80
2017-08-03T03:31:08.650Z,67.80
2017-08-03T03:33:35.543Z,67.90
2017-08-03T03:36:01.673Z,67.90
2017-08-03T03:38:27.793Z,68.20
2017-08-03T03:40:54.695Z,68.00
2017-08-03T03:43:20.874Z,68.00
2017-08-03T03:45:47.012Z,68.00
2017-08-03T03:48:13.152Z,68.00
2017-08-03T03:50:40.026Z,68.60
2017-08-03T03:53:06.173Z,68.40
2017-08-03T03:55:32.330Z,68.40
2017-08-03T03:57:58.451Z,68.50
2017-08-03T04:00:24.566Z,68.70
2017-08-03T04:02:50.730Z,68.40
2017-08-03T04:05:16.857Z,68.70
2017-08-03T04:07:43.738Z,68.40
2017-08-03T04:10:09.862Z,68.30
2017-08-03T04:12:36.006Z,68.20
2017-08-03T04:15:02.987Z,68.00
2017-08-03T04:17:29.129Z,68.00
2017-08-03T04:19:55.274Z,68.00
2017-08-03T04:22:22.195Z,67.70
2017-08-03T04:24:49.121Z,67.90
2017-08-03T04:27:16.018Z,67.90
2017-08-03T04:29:42.142Z,67.70
2017-08-03T04:32:08.270Z,68.40
2017-08-03T04:34:35.162Z,69.30
2017-08-03T04:37:01.303Z,69.30
2017-08-03T04:39:27.454Z,69.40
2017-08-03T04:41:53.624Z,69.40
2017-08-03T04:44:19.778Z,69.40
2017-08-03T04:46:45.898Z,69.10
2017-08-03T04:49:15.690Z,68.30
2017-08-03T04:51:41.828Z,68.00
2017-08-03T04:54:08.000Z,68.20
2017-08-03T04:56:34.511Z,68.80
2017-08-03T04:59:00.710Z,69.00
2017-08-03T05:01:27.627Z,69.40
2017-08-03T05:03:54.659Z,69.30
2017-08-03T05:06:20.907Z,69.40
2017-08-03T05:08:47.035Z,69.10
2017-08-03T05:11:13.183Z,70.00
2017-08-03T05:13:39.302Z,71.40
2017-08-03T05:16:05.452Z,74.20
2017-08-03T05:18:32.670Z,74.10
2017-08-03T05:20:59.567Z,74.90
2017-08-03T05:23:25.712Z,74.80
2017-08-03T05:25:51.854Z,74.90
2017-08-03T05:28:19.024Z,75.90
2017-08-03T05:30:45.213Z,76.30
2017-08-03T05:33:12.086Z,76.50
2017-08-03T05:35:38.222Z,76.50
2017-08-03T05:38:04.397Z,76.60
2017-08-03T05:40:30.571Z,76.80
2017-08-03T05:42:56.721Z,77.40
2017-08-03T05:45:22.879Z,77.30
2017-08-03T05:47:49.059Z,77.70
2017-08-03T05:50:15.190Z,77.70
2017-08-03T05:52:42.075Z,77.90
2017-08-03T05:55:08.236Z,77.90
2017-08-03T05:57:34.399Z,78.30
2017-08-03T06:00:00.518Z,78.60
2017-08-03T06:02:26.702Z,78.80
2017-08-03T06:04:52.826Z,78.00
2017-08-03T06:07:18.962Z,78.60
2017-08-03T06:09:45.099Z,78.40
2017-08-03T06:12:11.286Z,78.30
2017-08-03T06:14:37.402Z,78.00
2017-08-03T06:17:03.519Z,78.00
2017-08-03T06:19:29.661Z,78.10
2017-08-03T06:21:55.803Z,78.20
2017-08-03T06:24:21.984Z,78.40
2017-08-03T06:26:48.156Z,78.00
2017-08-03T06:29:14.291Z,78.30
2017-08-03T06:31:41.217Z,78.90
2017-08-03T06:34:07.387Z,78.90
2017-08-03T06:36:33.543Z,78.80
2017-08-03T06:39:00.415Z,78.80
2017-08-03T06:41:26.540Z,78.80
2017-08-03T06:43:52.707Z,78.70
2017-08-03T06:46:18.960Z,78.80
2017-08-03T06:48:45.122Z,78.50
2017-08-03T06:51:11.285Z,78.60
2017-08-03T06:53:37.435Z,78.70
2017-08-03T06:56:04.310Z,78.60
2017-08-03T06:58:30.451Z,78.00
2017-08-03T07:00:56.635Z,78.20
2017-08-03T07:03:22.801Z,78.40
2017-08-03T07:05:49.678Z,78.50
2017-08-03T07:08:15.819Z,78.40
2017-08-03T07:10:41.983Z,77.90
2017-08-03T07:13:08.120Z,78.10
2017-08-03T07:15:34.282Z,78.60
2017-08-03T07:18:01.160Z,78.60
2017-08-03T07:20:27.290Z,78.40
2017-08-03T07:22:53.410Z,78.60
2017-08-03T07:25:19.569Z,78.90
2017-08-03T07:27:45.725Z,78.90
2017-08-03T07:30:11.895Z,78.90
2017-08-03T07:32:38.043Z,78.70
2017-08-03T07:35:04.194Z,78.60
2017-08-03T07:37:31.073Z,78.80
2017-08-03T07:39:57.229Z,78.70
2017-08-03T07:42:24.102Z,78.60
2017-08-03T07:44:50.210Z,78.40
2017-08-03T07:47:16.359Z,78.00
2017-08-03T07:49:42.471Z,78.50
2017-08-03T07:52:08.599Z,77.50
2017-08-03T07:54:35.467Z,77.60
2017-08-03T07:57:01.639Z,77.60
2017-08-03T07:59:28.531Z,77.30
2017-08-03T08:01:54.742Z,77.40
2017-08-03T08:04:20.854Z,77.10
2017-08-03T08:06:46.995Z,76.70
2017-08-03T08:09:13.133Z,77.60
2017-08-03T08:11:39.273Z,76.70
2017-08-03T08:14:05.403Z,77.00
2017-08-03T08:16:31.590Z,76.80
2017-08-03T08:18:57.722Z,77.10
2017-08-03T08:21:23.839Z,76.90
2017-08-03T08:23:50.010Z,77.20
2017-08-03T08:26:16.127Z,77.30
2017-08-03T08:28:42.278Z,77.20
2017-08-03T08:31:08.406Z,77.50
2017-08-03T08:33:34.567Z,77.60
2017-08-03T08:36:00.711Z,77.70
2017-08-03T08:38:26.866Z,77.20
2017-08-03T08:40:53.762Z,77.50
2017-08-03T08:43:19.955Z,77.40
2017-08-03T08:45:46.094Z,77.40
2017-08-03T08:48:12.218Z,77.90
2017-08-03T08:50:39.134Z,76.80
2017-08-03T08:53:06.284Z,76.80
2017-08-03T08:55:32.479Z,76.70
2017-08-03T08:57:58.606Z,76.80
2017-08-03T09:00:24.813Z,77.00
2017-08-03T09:02:50.961Z,76.40
2017-08-03T09:05:17.119Z,76.10
2017-08-03T09:07:43.251Z,76.50
2017-08-03T09:10:09.410Z,76.50
2017-08-03T09:12:35.545Z,76.20
2017-08-03T09:15:01.683Z,76.30
2017-08-03T09:17:27.806Z,76.20
2017-08-03T09:19:54.752Z,75.80
2017-08-03T09:22:21.026Z,75.70
2017-08-03T09:24:49.211Z,75.80
2017-08-03T09:27:15.371Z,75.80
2017-08-03T09:29:41.532Z,75.20
2017-08-03T09:32:08.431Z,74.80
2017-08-03T09:34:34.570Z,74.70
2017-08-03T09:37:01.458Z,75.00
2017-08-03T09:39:27.729Z,75.00
2017-08-03T09:41:54.050Z,74.70
2017-08-03T09:44:20.220Z,74.80
2017-08-03T09:46:46.384Z,74.90
2017-08-03T09:49:12.552Z,75.00
2017-08-03T09:51:38.699Z,75.00
2017-08-03T09:54:04.866Z,73.80
2017-08-03T09:56:31.023Z,73.40
2017-08-03T09:58:57.533Z,73.60
2017-08-03T10:01:23.860Z,74.10
2017-08-03T10:03:50.015Z,73.10
2017-08-03T10:06:16.215Z,73.40
2017-08-03T10:08:42.383Z,73.20
2017-08-03T10:11:09.255Z,72.70
2017-08-03T10:13:35.410Z,72.70
2017-08-03T10:16:02.293Z,71.40
2017-08-03T10:18:28.429Z,71.40
2017-08-03T10:20:54.589Z,71.40
2017-08-03T10:23:20.770Z,72.30
2017-08-03T10:25:46.934Z,71.20
2017-08-03T10:28:13.070Z,71.10
2017-08-03T10:30:39.256Z,69.60
2017-08-03T10:33:05.423Z,70.10
2017-08-03T10:35:32.315Z,70.00
2017-08-03T10:37:58.439Z,69.90
2017-08-03T10:40:24.617Z,69.60
2017-08-03T10:42:50.759Z,68.90
2017-08-03T10:45:16.912Z,70.20
2017-08-03T10:47:43.037Z,69.40
2017-08-03T10:50:09.186Z,68.40
2017-08-03T10:52:35.318Z,68.60
2017-08-03T10:55:01.519Z,67.30
2017-08-03T10:57:27.663Z,68.70
2017-08-03T10:59:54.609Z,66.70
2017-08-03T11:02:20.788Z,66.70
2017-08-03T11:04:46.954Z,66.70
2017-08-03T11:07:13.127Z,66.50
2017-08-03T11:09:40.010Z,67.10
2017-08-03T11:12:06.175Z,67.10
2017-08-03T11:14:34.354Z,65.70
2017-08-03T11:17:00.528Z,66.20
2017-08-03T11:19:26.691Z,65.80
2017-08-03T11:21:52.838Z,65.10
2017-08-03T11:24:18.979Z,64.00
2017-08-03T11:26:46.823Z,64.80
2017-08-03T11:29:13.695Z,63.60
2017-08-03T11:31:39.895Z,63.50
2017-08-03T11:34:06.193Z,63.20
2017-08-03T11:36:32.395Z,63.40
2017-08-03T11:38:59.272Z,62.60
2017-08-03T11:41:25.455Z,62.60
2017-08-03T11:43:51.631Z,62.70
2017-08-03T11:46:17.787Z,63.10
2017-08-03T11:48:43.950Z,62.70
2017-08-03T11:51:10.083Z,62.50
2017-08-03T11:53:36.995Z,63.00
2017-08-03T11:56:03.155Z,62.90
2017-08-03T11:58:29.330Z,61.70
2017-08-03T12:00:55.520Z,60.90
2017-08-03T12:03:21.699Z,61.80
2017-08-03T12:05:47.842Z,61.10
2017-08-03T12:08:13.973Z,60.30
2017-08-03T12:10:40.171Z,58.60
2017-08-03T12:13:06.324Z,58.80
2017-08-03T12:15:32.519Z,57.20
2017-08-03T12:17:58.697Z,57.30
2017-08-03T12:20:24.907Z,57.20
2017-08-03T12:22:51.050Z,57.00
2017-08-03T12:25:17.198Z,55.30
2017-08-03T12:27:43.392Z,55.10
2017-08-03T12:30:10.315Z,55.70
2017-08-03T12:32:37.181Z,56.20
2017-08-03T12:35:03.344Z,55.70
2017-08-03T12:37:31.213Z,54.80
2017-08-03T12:39:57.362Z,54.60
2017-08-03T12:42:23.514Z,54.40
2017-08-03T12:44:49.678Z,55.00
2017-08-03T12:47:15.853Z,54.50
2017-08-03T12:49:42.754Z,54.30
2017-08-03T12:52:08.904Z,54.30
2017-08-03T12:54:35.815Z,53.20
2017-08-03T12:57:02.963Z,53.20
2017-08-03T12:59:29.866Z,53.20
2017-08-03T13:01:56.031Z,53.20
2017-08-03T13:04:24.282Z,52.20
2017-08-03T13:06:50.463Z,52.30
2017-08-03T13:09:16.615Z,50.90
2017-08-03T13:11:42.746Z,50.80
2017-08-03T13:14:09.205Z,51.40
2017-08-03T13:16:35.517Z,51.50
2017-08-03T13:19:01.720Z,49.90
2017-08-03T13:21:27.907Z,49.60
2017-08-03T13:23:54.056Z,48.80
2017-08-03T13:26:20.263Z,47.90
2017-08-03T13:28:46.390Z,46.50
2017-08-03T13:31:13.299Z,46.60
2017-08-03T13:33:39.455Z,46.50
2017-08-03T13:36:05.636Z,45.70
2017-08-03T13:38:31.774Z,45.90
2017-08-03T13:40:57.919Z,44.50
2017-08-03T13:43:24.058Z,43.90
2017-08-03T13:45:50.197Z,43.60
2017-08-03T13:48:17.084Z,35.20
2017-08-03T13:50:43.213Z,35.30
2017-08-03T13:53:09.390Z,33.80
2017-08-03T13:55:35.557Z,31.80
2017-08-03T13:58:02.454Z,30.60
2017-08-03T14:00:29.468Z,30.60
2017-08-03T14:02:55.802Z,29.20
2017-08-03T14:05:22.963Z,29.30
2017-08-03T14:07:49.867Z,30.00
2017-08-03T14:10:16.045Z,30.00
2017-08-03T14:12:42.219Z,29.90
2017-08-03T14:15:09.123Z,30.20
2017-08-03T14:17:35.291Z,30.00
2017-08-03T14:20:01.458Z,30.60
2017-08-03T14:22:27.620Z,29.60
2017-08-03T14:24:53.789Z,29.70
2017-08-03T14:27:19.968Z,29.40
2017-08-03T14:29:46.125Z,30.00
2017-08-03T14:32:13.056Z,30.10
2017-08-03T14:34:39.959Z,30.70
2017-08-03T14:37:06.112Z,30.70
2017-08-03T14:39:32.300Z,31.30
2017-08-03T14:41:59.187Z,30.90
2017-08-03T14:44:29.094Z,30.80
2017-08-03T14:46:55.262Z,31.40
2017-08-03T14:49:21.431Z,31.10
2017-08-03T14:51:47.563Z,32.20
2017-08-03T14:54:13.716Z,32.10
2017-08-03T14:56:39.822Z,32.60
2017-08-03T14:59:05.999Z,32.90
2017-08-03T15:01:32.131Z,32.00
2017-08-03T15:03:59.054Z,33.80
2017-08-03T15:06:25.207Z,33.90
2017-08-03T15:08:51.346Z,33.90
2017-08-03T15:11:17.537Z,33.80
2017-08-03T15:13:43.735Z,33.50
2017-08-03T15:16:09.886Z,33.80
2017-08-03T15:18:36.031Z,34.20
2017-08-03T15:21:02.211Z,35.10
2017-08-03T15:23:28.327Z,35.20
2017-08-03T15:25:54.487Z,35.50
2017-08-03T15:28:20.655Z,35.20
2017-08-03T15:30:47.574Z,35.20
2017-08-03T15:33:13.711Z,35.20
2017-08-03T15:35:40.646Z,35.90
2017-08-03T15:38:06.796Z,35.80
2017-08-03T15:40:32.995Z,35.80
2017-08-03T15:42:59.123Z,35.90
2017-08-03T15:45:25.326Z,36.10
2017-08-03T15:47:51.491Z,36.70
2017-08-03T15:50:17.655Z,36.20
2017-08-03T15:52:43.863Z,36.90
2017-08-03T15:55:10.015Z,36.10
2017-08-03T15:57:36.162Z,36.50
2017-08-03T16:00:03.183Z,37.20
2017-08-03T16:02:29.295Z,37.20
2017-08-03T16:04:56.271Z,37.00
2017-08-03T16:07:22.403Z,37.20
2017-08-03T16:09:48.554Z,37.40
2017-08-03T16:12:15.431Z,36.20
2017-08-03T16:14:41.563Z,36.10
2017-08-03T16:17:07.707Z,36.80
2017-08-03T16:19:33.890Z,36.90
2017-08-03T16:22:00.115Z,37.30
2017-08-03T16:24:26.270Z,37.30
2017-08-03T16:26:52.449Z,37.40
2017-08-03T16:29:19.390Z,37.30
2017-08-03T16:31:46.323Z,37.40
2017-08-03T16:34:12.504Z,37.30
2017-08-03T16:36:38.667Z,37.40
2017-08-03T16:39:04.794Z,37.70
2017-08-03T16:41:30.999Z,37.40
2017-08-03T16:43:57.180Z,37.80
2017-08-03T16:46:24.070Z,37.30
2017-08-03T16:48:50.278Z,37.20
2017-08-03T16:51:16.439Z,37.20
2017-08-03T16:53:42.582Z,37.00
2017-08-03T16:56:08.781Z,37.60
2017-08-03T16:58:34.956Z,37.40
2017-08-03T17:01:01.839Z,38.50
2017-08-03T17:03:27.988Z,38.50
2017-08-03T17:05:54.122Z,38.80
2017-08-03T17:08:20.299Z,39.00
2017-08-03T17:10:46.439Z,38.70
2017-08-03T17:13:13.335Z,38.80
2017-08-03T17:15:39.503Z,38.80
2017-08-03T17:18:06.797Z,39.30
2017-08-03T17:20:33.071Z,39.30
2017-08-03T17:22:59.264Z,39.10
2017-08-03T17:25:25.422Z,39.20
2017-08-03T17:27:51.595Z,39.40
2017-08-03T17:30:17.737Z,39.50
2017-08-03T17:32:43.932Z,38.90
2017-08-03T17:35:10.079Z,38.50
2017-08-03T17:37:36.218Z,38.80
2017-08-03T17:40:02.353Z,39.00
2017-08-03T17:42:28.536Z,39.10
2017-08-03T17:44:55.398Z,38.80
2017-08-03T17:47:21.543Z,38.50
2017-08-03T17:49:47.659Z,39.00
2017-08-03T17:52:13.774Z,38.50
2017-08-03T17:54:39.922Z,38.00
2017-08-03T17:57:07.769Z,38.20
2017-08-03T17:59:34.636Z,37.20
2017-08-03T18:02:00.763Z,37.20
2017-08-03T18:04:26.907Z,37.20
2017-08-03T18:06:53.057Z,37.10
2017-08-03T18:09:19.226Z,37.90
2017-08-03T18:11:45.367Z,37.50
2017-08-03T18:14:11.499Z,38.10
2017-08-03T18:16:37.635Z,38.10
2017-08-03T18:19:03.799Z,38.20
2017-08-03T18:21:29.927Z,38.40
2017-08-03T18:23:56.066Z,38.80
2017-08-03T18:26:22.200Z,39.10
2017-08-03T18:28:48.336Z,38.60
2017-08-03T18:31:15.227Z,39.10
2017-08-03T18:33:41.404Z,39.10
2017-08-03T18:36:07.531Z,39.20
2017-08-03T18:38:33.654Z,39.10
2017-08-03T18:40:59.820Z,39.00
2017-08-03T18:43:25.946Z,39.00
2017-08-03T18:45:52.090Z,39.20
2017-08-03T18:48:18.231Z,39.20
2017-08-03T18:50:44.379Z,39.30
2017-08-03T18:53:10.506Z,39.40
2017-08-03T18:55:36.650Z,39.90
2017-08-03T18:58:02.782Z,40.00
2017-08-03T19:00:28.926Z,40.00
2017-08-03T19:02:55.082Z,40.10
2017-08-03T19:05:21.250Z,40.20
2017-08-03T19:07:47.410Z,40.10
2017-08-03T19:10:13.551Z,40.50
2017-08-03T19:12:40.417Z,40.30
2017-08-03T19:15:07.266Z,40.20
2017-08-03T19:17:33.414Z,40.20
2017-08-03T19:20:00.319Z,41.00
2017-08-03T19:22:26.446Z,40.20
2017-08-03T19:24:52.566Z,40.40
2017-08-03T19:27:18.722Z,40.10
2017-08-03T19:29:44.846Z,39.60
2017-08-03T19:32:10.982Z,39.30
2017-08-03T19:34:37.139Z,39.20
2017-08-03T19:37:03.377Z,39.20
2017-08-03T19:39:29.582Z,38.80
2017-08-03T19:41:55.778Z,38.90
2017-08-03T19:44:21.915Z,38.80
2017-08-03T19:46:48.801Z,38.70
2017-08-03T19:49:15.682Z,39.00
2017-08-03T19:51:41.809Z,39.00
2017-08-03T19:54:07.944Z,39.00
2017-08-03T19:56:34.868Z,39.70
2017-08-03T19:59:01.727Z,39.50
2017-08-03T20:01:27.879Z,39.50
2017-08-03T20:03:54.010Z,40.40
2017-08-03T20:06:23.315Z,39.90
2017-08-03T20:08:50.215Z,40.10
2017-08-03T20:11:16.432Z,40.10
2017-08-03T20:13:42.555Z,40.70
2017-08-03T20:16:08.690Z,40.70
2017-08-03T20:18:34.854Z,40.90
2017-08-03T20:21:01.006Z,41.00
2017-08-03T20:23:27.926Z,42.20
2017-08-03T20:25:54.794Z,44.00
2017-08-03T20:28:20.934Z,43.90
2017-08-03T20:30:47.059Z,44.60
2017-08-03T20:33:13.208Z,44.50
2017-08-03T20:35:39.334Z,45.30
2017-08-03T20:38:05.470Z,45.30
2017-08-03T20:40:31.596Z,45.90
2017-08-03T20:42:57.742Z,45.80
2017-08-03T20:45:23.874Z,45.70
2017-08-03T20:47:51.559Z,45.80
2017-08-03T20:50:17.697Z,45.80
2017-08-03T20:52:43.836Z,44.80
2017-08-03T20:55:09.970Z,44.70
2017-08-03T20:57:36.103Z,45.00
2017-08-03T21:00:02.227Z,45.20
2017-08-03T21:02:28.359Z,44.30
2017-08-03T21:04:55.224Z,46.20
2017-08-03T21:07:21.407Z,45.90
2017-08-03T21:09:48.274Z,47.50
2017-08-03T21:12:14.394Z,47.40
2017-08-03T21:14:40.528Z,46.90
2017-08-03T21:17:06.658Z,46.70
2017-08-03T21:19:32.810Z,46.70
2017-08-03T21:21:58.953Z,46.50
2017-08-03T21:24:26.182Z,46.30
2017-08-03T21:26:52.566Z,46.00
2017-08-03T21:29:20.762Z,47.10
2017-08-03T21:31:47.978Z,47.80
2017-08-03T21:34:14.111Z,48.90
2017-08-03T21:36:40.259Z,47.10
2017-08-03T21:39:06.390Z,49.20
2017-08-03T21:41:33.266Z,47.50
2017-08-03T21:43:59.415Z,47.50
2017-08-03T21:46:26.322Z,47.80
2017-08-03T21:48:52.506Z,47.50
2017-08-03T21:51:18.640Z,46.50
2017-08-03T21:53:44.829Z,46.20
2017-08-03T21:56:11.078Z,46.30
2017-08-03T21:58:37.238Z,46.60
2017-08-03T22:01:16.730Z,46.00
2017-08-03T22:03:43.622Z,46.30
2017-08-03T22:06:09.771Z,46.30
2017-08-03T22:08:35.897Z,46.70
2017-08-03T22:11:02.069Z,46.50
2017-08-03T22:13:28.236Z,46.40
2017-08-03T22:16:01.410Z,46.20
2017-08-03T22:18:27.548Z,46.20
2017-08-03T22:20:53.715Z,46.20
2017-08-03T22:23:20.587Z,46.50
2017-08-03T22:25:46.807Z,46.60
2017-08-03T22:28:12.983Z,46.50
2017-08-03T22:30:39.138Z,46.70
2017-08-03T22:33:05.314Z,47.10
2017-08-03T22:35:31.488Z,47.00
2017-08-03T22:37:58.378Z,48.10
2017-08-03T22:40:24.663Z,47.10
2017-08-03T22:42:50.829Z,46.60
2017-08-03T22:45:16.982Z,46.70
2017-08-03T22:47:43.158Z,47.30
2017-08-03T22:50:09.327Z,47.20
2017-08-03T22:52:35.486Z,47.10
2017-08-03T22:55:01.651Z,47.20
2017-08-03T22:57:27.824Z,47.60
2017-08-03T22:59:54.695Z,47.40
2017-08-03T23:02:20.834Z,47.40
2017-08-03T23:04:47.018Z,47.50
2017-08-03T23:07:23.749Z,48.00
2017-08-03T23:09:49.879Z,47.70
2017-08-03T23:12:16.015Z,48.40
2017-08-03T23:14:42.154Z,47.50
2017-08-03T23:17:08.335Z,47.60
2017-08-03T23:19:34.483Z,47.70
2017-08-03T23:22:00.618Z,47.70
2017-08-03T23:24:28.062Z,47.80
2017-08-03T23:26:54.209Z,47.90
2017-08-03T23:29:20.335Z,47.90
2017-08-03T23:31:46.506Z,48.20
2017-08-03T23:34:12.959Z,48.20
2017-08-03T23:36:39.127Z,48.20
2017-08-03T23:39:05.268Z,48.10
2017-08-03T23:41:31.418Z,48.30
2017-08-03T23:43:57.554Z,48.20
2017-08-03T23:46:24.421Z,48.30
2017-08-03T23:48:50.562Z,48.20
2017-08-03T23:51:16.690Z,48.40
2017-08-03T23:53:42.851Z,48.60
2017-08-03T23:56:08.958Z,48.40
2017-08-03T23:58:35.103Z,48.70
